| time (UTC) | temp C | wind direction | speed KPH | gust KPH | rain 1hr cm | rain 24hr cm | rain mn cm | humidity % | barometer mb |
| 20260506230411 | 19 | 36 | 9.7 | 12.9 | 0.00 | 0.13 | 0.13 | 66 | 1013.5 |
| 20260506225907 | 19 | 348 | 8.0 | 11.3 | 0.00 | 0.13 | 0.13 | 69 | 1013.3 |
| 20260506225405 | 18 | 11 | 6.4 | 9.7 | 0.00 | 0.13 | 0.13 | 70 | 1013.5 |
| 20260506224901 | 18 | 349 | 11.3 | 14.5 | 0.00 | 0.13 | 0.13 | 68 | 1013.6 |
| 20260506224359 | 18 | 42 | 4.8 | 4.8 | 0.00 | 0.13 | 0.13 | 68 | 1013.4 |
| 20260506223855 | 19 | 3 | 9.7 | 11.3 | 0.00 | 0.13 | 0.13 | 68 | 1013.5 |
| 20260506223350 | 18 | 33 | 4.8 | 4.8 | 0.00 | 0.13 | 0.13 | 70 | 1013.2 |
| 20260506222848 | 18 | 19 | 8.0 | 11.3 | 0.00 | 0.13 | 0.13 | 68 | 1013.2 |
| 20260506222343 | 18 | 8 | 4.8 | 4.8 | 0.00 | 0.13 | 0.13 | 70 | 1013.3 |
| 20260506221841 | 18 | 66 | 3.2 | 4.8 | 0.00 | 0.13 | 0.13 | 71 | 1013.2 |
| 20260506221338 | 18 | 39 | 4.8 | 4.8 | 0.00 | 0.13 | 0.13 | 69 | 1013.2 |
| 20260506220836 | 18 | 45 | 4.8 | 8.0 | 0.00 | 0.13 | 0.13 | 69 | 1013.1 |
| 20260506220331 | 18 | 12 | 11.3 | 12.9 | 0.00 | 0.13 | 0.13 | 68 | 1012.9 |
| 20260506215828 | 18 | 339 | 12.9 | 12.9 | 0.00 | 0.13 | 0.13 | 67 | 1013.1 |
| 20260506215324 | 19 | 35 | 9.7 | 11.3 | 0.00 | 0.13 | 0.13 | 66 | 1013.2 |
| 20260506214820 | 20 | 32 | 8.0 | 11.3 | 0.00 | 0.13 | 0.13 | 68 | 1013.3 |
| 20260506214317 | 19 | 15 | 6.4 | 8.0 | 0.00 | 0.13 | 0.13 | 67 | 1013.1 |
| 20260506213815 | 19 | 333 | 9.7 | 14.5 | 0.00 | 0.13 | 0.13 | 67 | 1013.0 |
| 20260506213312 | 20 | 30 | 4.8 | 4.8 | 0.00 | 0.13 | 0.13 | 68 | 1013.0 |
| 20260506212810 | 20 | 346 | 6.4 | 9.7 | 0.00 | 0.13 | 0.13 | 65 | 1013.2 |
| 20260506212306 | 19 | 329 | 16.1 | 20.9 | 0.00 | 0.13 | 0.13 | 66 | 1013.2 |
| 20260506211800 | 19 | 321 | 12.9 | 14.5 | 0.00 | 0.13 | 0.13 | 66 | 1013.3 |
| 20260506211257 | 19 | 5 | 6.4 | 8.0 | 0.00 | 0.13 | 0.13 | 66 | 1013.2 |
| 20260506210754 | 19 | 350 | 6.4 | 11.3 | 0.00 | 0.13 | 0.13 | 70 | 1013.3 |
| 20260506210251 | 18 | 15 | 9.7 | 11.3 | 0.00 | 0.13 | 0.13 | 68 | 1013.3 |
| 20260506205748 | 19 | 72 | 3.2 | 4.8 | 0.00 | 0.13 | 0.13 | 71 | 1013.4 |
| 20260506205243 | 18 | 34 | 1.6 | 1.6 | 0.00 | 0.13 | 0.13 | 72 | 1013.6 |
| 20260506204740 | 18 | 42 | 9.7 | 14.5 | 0.00 | 0.13 | 0.13 | 69 | 1013.6 |
| 20260506204238 | 18 | 52 | 3.2 | 4.8 | 0.00 | 0.13 | 0.13 | 70 | 1013.6 |
| 20260506203736 | 18 | 110 | 1.6 | 1.6 | 0.00 | 0.13 | 0.13 | 74 | 1013.4 |
| 20260506203233 | 18 | 0 | 9.7 | 11.3 | 0.00 | 0.13 | 0.13 | 71 | 1013.5 |
| 20260506202730 | 18 | 86 | 3.2 | 3.2 | 0.00 | 0.13 | 0.13 | 69 | 1013.6 |
| 20260506202226 | 18 | 340 | 1.6 | 3.2 | 0.00 | 0.13 | 0.13 | 73 | 1013.8 |
| 20260506201723 | 17 | 110 | 4.8 | 4.8 | 0.00 | 0.13 | 0.13 | 73 | 1013.8 |
| 20260506201220 | 17 | 69 | 3.2 | 4.8 | 0.00 | 0.13 | 0.13 | 72 | 1013.7 |
| 20260506200717 | 17 | 89 | 3.2 | 8.0 | 0.00 | 0.13 | 0.13 | 75 | 1014.1 |
| 20260506200214 | 17 | 140 | 6.4 | 8.0 | 0.00 | 0.13 | 0.13 | 73 | 1014.0 |
| 20260506195710 | 17 | 127 | 1.6 | 3.2 | 0.00 | 0.13 | 0.13 | 73 | 1014.0 |
| 20260506195207 | 17 | 77 | 3.2 | 3.2 | 0.00 | 0.13 | 0.13 | 71 | 1014.1 |
| 20260506194704 | 17 | 80 | 0.0 | 1.6 | 0.00 | 0.13 | 0.13 | 72 | 1014.3 |
| 20260506194200 | 17 | 94 | 1.6 | 1.6 | 0.00 | 0.13 | 0.13 | 70 | 1014.2 |
| 20260506193658 | 17 | 345 | 4.8 | 8.0 | 0.00 | 0.13 | 0.13 | 72 | 1014.1 |
| 20260506193155 | 16 | 38 | 1.6 | 1.6 | 0.00 | 0.13 | 0.13 | 72 | 1014.3 |
| 20260506192652 | 16 | 19 | 8.0 | 8.0 | 0.00 | 0.13 | 0.13 | 71 | 1014.4 |
| 20260506192148 | 16 | 110 | 1.6 | 3.2 | 0.00 | 0.13 | 0.13 | 73 | 1014.5 |
| 20260506191645 | 16 | 29 | 3.2 | 3.2 | 0.00 | 0.13 | 0.13 | 74 | 1014.5 |
| 20260506191141 | 16 | 53 | 3.2 | 4.8 | 0.00 | 0.13 | 0.13 | 74 | 1014.6 |
| 20260506190639 | 16 | 69 | 1.6 | 3.2 | 0.00 | 0.13 | 0.13 | 75 | 1014.6 |
| 20260506190135 | 16 | 77 | 3.2 | 3.2 | 0.00 | 0.13 | 0.13 | 75 | 1014.6 |
| 20260506185632 | 16 | 70 | 3.2 | 3.2 | 0.00 | 0.13 | 0.13 | 75 | 1014.7 |
| 20260506185128 | 15 | 2 | 3.2 | 3.2 | 0.00 | 0.13 | 0.13 | 74 | 1014.5 |
| 20260506184626 | 16 | 335 | 6.4 | 9.7 | 0.00 | 0.13 | 0.13 | 75 | 1014.1 |
| 20260506184123 | 15 | 346 | 6.4 | 8.0 | 0.00 | 0.13 | 0.13 | 76 | 1014.0 |
| 20260506183620 | 15 | 1 | 8.0 | 9.7 | 0.00 | 0.13 | 0.13 | 75 | 1014.3 |
| 20260506183115 | 15 | 353 | 8.0 | 9.7 | 0.00 | 0.13 | 0.13 | 76 | 1014.2 |
| 20260506182613 | 15 | 54 | 9.7 | 12.9 | 0.00 | 0.13 | 0.13 | 76 | 1014.6 |
| 20260506182110 | 15 | 28 | 8.0 | 9.7 | 0.00 | 0.13 | 0.13 | 77 | 1014.4 |
| 20260506181608 | 15 | 344 | 8.0 | 11.3 | 0.00 | 0.13 | 0.13 | 77 | 1014.4 |
| 20260506181105 | 15 | 344 | 8.0 | 9.7 | 0.00 | 0.13 | 0.13 | 78 | 1014.5 |
| 20260506180601 | 14 | 332 | 8.0 | 11.3 | 0.00 | 0.13 | 0.13 | 78 | 1014.3 |
| 20260506180058 | 14 | 21 | 9.7 | 11.3 | 0.00 | 0.13 | 0.13 | 77 | 1014.1 |
| 20260506175554 | 14 | 32 | 4.8 | 4.8 | 0.00 | 0.13 | 0.13 | 81 | 1014.4 |
| 20260506175051 | 13 | 355 | 8.0 | 9.7 | 0.00 | 0.13 | 0.13 | 80 | 1014.5 |
| 20260506174550 | 13 | 341 | 11.3 | 14.5 | 0.00 | 0.13 | 0.13 | 80 | 1014.4 |
| 20260506174045 | 13 | 6 | 8.0 | 11.3 | 0.00 | 0.13 | 0.13 | 81 | 1014.6 |
| 20260506173543 | 13 | 142 | 4.8 | 8.0 | 0.00 | 0.13 | 0.13 | 82 | 1014.9 |
| 20260506173040 | 12 | 347 | 11.3 | 14.5 | 0.00 | 0.13 | 0.13 | 81 | 1015.1 |
| 20260506172537 | 12 | 42 | 9.7 | 12.9 | 0.00 | 0.13 | 0.13 | 82 | 1014.9 |
| 20260506172028 | 12 | 30 | 8.0 | 11.3 | 0.00 | 0.13 | 0.13 | 83 | 1014.3 |
| 20260506171525 | 12 | 351 | 11.3 | 16.1 | 0.00 | 0.13 | 0.13 | 83 | 1014.4 |
| 20260506171022 | 12 | 336 | 11.3 | 14.5 | 0.00 | 0.13 | 0.13 | 84 | 1014.5 |
| 20260506170520 | 11 | 323 | 8.0 | 11.3 | 0.00 | 0.13 | 0.13 | 84 | 1014.7 |
| 20260506170017 | 11 | 344 | 14.5 | 16.1 | 0.00 | 0.13 | 0.13 | 85 | 1014.3 |
| 20260506165516 | 11 | 1 | 12.9 | 14.5 | 0.00 | 0.13 | 0.13 | 86 | 1014.1 |
| 20260506165011 | 11 | 350 | 12.9 | 14.5 | 0.00 | 0.13 | 0.13 | 87 | 1014.0 |
| 20260506164508 | 11 | 27 | 8.0 | 11.3 | 0.00 | 0.13 | 0.13 | 88 | 1014.5 |
| 20260506164006 | 11 | 326 | 9.7 | 11.3 | 0.00 | 0.13 | 0.13 | 89 | 1014.8 |
| 20260506163501 | 10 | 46 | 3.2 | 4.8 | 0.00 | 0.13 | 0.13 | 89 | 1014.4 |
| 20260506162955 | 10 | 25 | 8.0 | 9.7 | 0.00 | 0.13 | 0.13 | 90 | 1014.3 |
| 20260506162454 | 10 | 5 | 4.8 | 8.0 | 0.00 | 0.13 | 0.13 | 91 | 1014.2 |
| 20260506161951 | 10 | 357 | 11.3 | 14.5 | 0.00 | 0.13 | 0.13 | 91 | 1014.3 |
| 20260506161449 | 10 | 351 | 8.0 | 12.9 | 0.00 | 0.13 | 0.13 | 92 | 1014.3 |
| 20260506160946 | 10 | 17 | 4.8 | 8.0 | 0.00 | 0.13 | 0.13 | 92 | 1014.5 |
| 20260506160443 | 10 | 35 | 6.4 | 9.7 | 0.00 | 0.13 | 0.13 | 93 | 1014.3 |
| 20260506155940 | 10 | 13 | 8.0 | 9.7 | 0.00 | 0.13 | 0.13 | 93 | 1014.6 |
| 20260506155438 | 10 | 24 | 4.8 | 4.8 | 0.00 | 0.13 | 0.13 | 93 | 1014.2 |
| 20260506153605 | 10 | 40 | 11.3 | 14.5 | 0.00 | 0.13 | 0.13 | 94 | 1013.6 |
| 20260506153102 | 10 | 36 | 8.0 | 11.3 | 0.00 | 0.13 | 0.13 | 94 | 1013.7 |
| 20260506152559 | 10 | 38 | 12.9 | 14.5 | 0.00 | 0.13 | 0.13 | 95 | 1014.1 |
| 20260506152057 | 10 | 342 | 8.0 | 11.3 | 0.00 | 0.13 | 0.13 | 95 | 1014.2 |
| 20260506151555 | 10 | 68 | 8.0 | 11.3 | 0.00 | 0.13 | 0.13 | 95 | 1014.4 |
| 20260506151052 | 10 | 11 | 8.0 | 11.3 | 0.00 | 0.13 | 0.13 | 95 | 1014.6 |
| 20260506150548 | 10 | 13 | 9.7 | 11.3 | 0.13 | 0.13 | 0.13 | 95 | 1013.6 |
| 20260506150045 | 10 | 8 | 16.1 | 17.7 | 0.13 | 0.13 | 0.13 | 95 | 1014.2 |
| 20260506145541 | 10 | 352 | 11.3 | 12.9 | 0.30 | 0.13 | 0.13 | 94 | 1014.7 |
| 20260506145039 | 9 | 5 | 8.0 | 9.7 | 0.30 | 0.10 | 0.10 | 94 | 1015.6 |
| 20260506144536 | 10 | 346 | 4.8 | 8.0 | 0.13 | 0.08 | 0.08 | 94 | 1016.1 |
| 20260506144033 | 9 | 325 | 3.2 | 3.2 | 0.18 | 0.05 | 0.05 | 94 | 1016.4 |
| 20260506143531 | 10 | 277 | 3.2 | 3.2 | 0.18 | 0.05 | 0.05 | 94 | 1016.8 |
| 20260506143029 | 9 | 330 | 1.6 | 1.6 | 0.13 | 0.03 | 0.03 | 94 | 1016.4 |
| 20260506142526 | 9 | 342 | 4.8 | 4.8 | 0.13 | 0.03 | 0.03 | 94 | 1015.4 |
| 20260506142024 | 9 | 347 | 6.4 | 11.3 | 0.00 | 0.00 | 0.00 | 94 | 1014.5 |
| 20260506141522 | 9 | 356 | 8.0 | 11.3 | 0.00 | 0.00 | 0.00 | 94 | 1014.1 |
| 20260506141020 | 9 | 20 | 11.3 | 14.5 | 0.00 | 0.00 | 0.00 | 94 | 1014.0 |
| 20260506140517 | 9 | 16 | 8.0 | 9.7 | 0.00 | 0.00 | 0.00 | 94 | 1014.4 |
| 20260506140014 | 9 | 15 | 9.7 | 11.3 | 0.00 | 0.00 | 0.00 | 93 | 1014.0 |
| 20260506135511 | 10 | 23 | 6.4 | 9.7 | 0.00 | 0.00 | 0.00 | 93 | 1013.6 |
| 20260506135007 | 10 | 335 | 8.0 | 9.7 | 0.00 | 0.00 | 0.00 | 92 | 1014.2 |
| 20260506134504 | 10 | 11 | 8.0 | 9.7 | 0.00 | 0.00 | 0.00 | 92 | 1014.6 |
| 20260506134000 | 10 | 18 | 4.8 | 11.3 | 0.00 | 0.00 | 0.00 | 92 | 1014.6 |
| 20260506133457 | 10 | 355 | 8.0 | 9.7 | 0.00 | 0.00 | 0.00 | 91 | 1015.0 |
| 20260506132954 | 10 | 355 | 8.0 | 11.3 | 0.00 | 0.00 | 0.00 | 92 | 1015.0 |
| 20260506132451 | 10 | 359 | 4.8 | 4.8 | 0.00 | 0.00 | 0.00 | 92 | 1015.1 |
| 20260506131948 | 9 | 354 | 8.0 | 11.3 | 0.00 | 0.00 | 0.00 | 92 | 1014.3 |
| 20260506131445 | 10 | 14 | 6.4 | 9.7 | 0.00 | 0.00 | 0.00 | 91 | 1013.7 |
| 20260506130942 | 10 | 50 | 8.0 | 11.3 | 0.00 | 0.00 | 0.00 | 91 | 1013.5 |
| 20260506130438 | 10 | 349 | 11.3 | 14.5 | 0.00 | 0.00 | 0.00 | 91 | 1013.5 |
| 20260506125936 | 10 | 32 | 14.5 | 16.1 | 0.00 | 0.00 | 0.00 | 91 | 1013.4 |
| 20260506125434 | 10 | 1 | 11.3 | 12.9 | 0.00 | 0.00 | 0.00 | 91 | 1013.5 |
| 20260506124932 | 10 | 348 | 9.7 | 11.3 | 0.00 | 0.00 | 0.00 | 91 | 1013.4 |
| 20260506124429 | 9 | 24 | 9.7 | 12.9 | 0.00 | 0.00 | 0.00 | 91 | 1013.2 |
| 20260506123927 | 9 | 359 | 8.0 | 9.7 | 0.00 | 0.00 | 0.00 | 92 | 1013.0 |
| 20260506123425 | 9 | 34 | 8.0 | 9.7 | 0.00 | 0.00 | 0.00 | 92 | 1013.0 |
| 20260506122922 | 9 | 31 | 11.3 | 14.5 | 0.00 | 0.00 | 0.00 | 92 | 1012.6 |
| 20260506122419 | 9 | 35 | 9.7 | 11.3 | 0.00 | 0.00 | 0.00 | 91 | 1012.9 |
| 20260506121917 | 10 | 12 | 12.9 | 14.5 | 0.00 | 0.00 | 0.00 | 91 | 1013.0 |
| 20260506121414 | 10 | 21 | 12.9 | 16.1 | 0.00 | 0.00 | 0.00 | 91 | 1012.7 |
| 20260506120911 | 10 | 352 | 14.5 | 16.1 | 0.00 | 0.00 | 0.00 | 90 | 1013.1 |
| 20260506120408 | 10 | 21 | 12.9 | 14.5 | 0.00 | 0.00 | 0.00 | 90 | 1012.9 |
| 20260506115906 | 10 | 4 | 11.3 | 17.7 | 0.00 | 0.00 | 0.00 | 91 | 1012.8 |
| 20260506115404 | 10 | 341 | 14.5 | 22.5 | 0.00 | 0.00 | 0.00 | 90 | 1012.5 |
| 20260506114902 | 10 | 7 | 6.4 | 9.7 | 0.00 | 0.00 | 0.00 | 91 | 1012.8 |
| 20260506114359 | 10 | 344 | 11.3 | 12.9 | 0.00 | 0.00 | 0.00 | 90 | 1012.9 |
| 20260506113858 | 10 | 346 | 11.3 | 17.7 | 0.00 | 0.00 | 0.00 | 90 | 1012.8 |
| 20260506113354 | 10 | 26 | 8.0 | 11.3 | 0.00 | 0.00 | 0.00 | 90 | 1012.7 |
| 20260506112851 | 10 | 335 | 9.7 | 11.3 | 0.00 | 0.00 | 0.00 | 90 | 1012.5 |
| 20260506112348 | 10 | 9 | 6.4 | 9.7 | 0.00 | 0.00 | 0.00 | 90 | 1012.3 |
| 20260506111845 | 10 | 10 | 11.3 | 14.5 | 0.00 | 0.00 | 0.00 | 90 | 1012.3 |
| 20260506111344 | 10 | 353 | 17.7 | 20.9 | 0.00 | 0.00 | 0.00 | 90 | 1012.2 |
| 20260506110841 | 10 | 5 | 11.3 | 14.5 | 0.00 | 0.00 | 0.00 | 89 | 1012.1 |
| 20260506110338 | 10 | 353 | 9.7 | 12.9 | 0.00 | 0.00 | 0.00 | 90 | 1012.0 |
| 20260506105835 | 10 | 34 | 11.3 | 12.9 | 0.00 | 0.00 | 0.00 | 89 | 1011.9 |
| 20260506105331 | 10 | 349 | 11.3 | 12.9 | 0.00 | 0.00 | 0.00 | 89 | 1011.7 |
| 20260506104829 | 10 | 14 | 12.9 | 16.1 | 0.00 | 0.00 | 0.00 | 89 | 1011.5 |
| 20260506104326 | 10 | 355 | 17.7 | 25.7 | 0.00 | 0.00 | 0.00 | 89 | 1011.5 |
| 20260506103824 | 10 | 10 | 14.5 | 17.7 | 0.00 | 0.00 | 0.00 | 89 | 1011.6 |
| 20260506103321 | 10 | 357 | 9.7 | 12.9 | 0.00 | 0.00 | 0.00 | 88 | 1011.7 |
| 20260506102819 | 11 | 14 | 8.0 | 11.3 | 0.00 | 0.00 | 0.00 | 88 | 1011.8 |
| 20260506102316 | 11 | 2 | 14.5 | 17.7 | 0.00 | 0.00 | 0.00 | 87 | 1011.6 |
| 20260506101813 | 11 | 3 | 11.3 | 14.5 | 0.00 | 0.00 | 0.00 | 87 | 1011.5 |
| 20260506101309 | 11 | 336 | 16.1 | 24.1 | 0.00 | 0.00 | 0.00 | 86 | 1011.3 |
| 20260506100807 | 11 | 11 | 11.3 | 14.5 | 0.00 | 0.00 | 0.00 | 86 | 1011.1 |
| 20260506100305 | 11 | 11 | 12.9 | 16.1 | 0.00 | 0.00 | 0.00 | 86 | 1011.0 |
| 20260506095804 | 11 | 35 | 8.0 | 9.7 | 0.00 | 0.00 | 0.00 | 86 | 1010.8 |
| 20260506095300 | 11 | 36 | 9.7 | 11.3 | 0.00 | 0.00 | 0.00 | 86 | 1011.2 |
| 20260506094757 | 12 | 12 | 11.3 | 12.9 | 0.00 | 0.00 | 0.00 | 86 | 1010.9 |
| 20260506094255 | 12 | 7 | 12.9 | 14.5 | 0.00 | 0.00 | 0.00 | 85 | 1010.9 |
| 20260506093753 | 12 | 336 | 11.3 | 12.9 | 0.00 | 0.00 | 0.00 | 85 | 1010.6 |
| 20260506093250 | 12 | 30 | 4.8 | 8.0 | 0.00 | 0.00 | 0.00 | 85 | 1010.5 |
| 20260506092748 | 12 | 7 | 8.0 | 9.7 | 0.00 | 0.00 | 0.00 | 85 | 1010.8 |
| 20260506092246 | 12 | 338 | 4.8 | 8.0 | 0.00 | 0.00 | 0.00 | 84 | 1010.4 |
| 20260506091743 | 12 | 29 | 8.0 | 9.7 | 0.00 | 0.00 | 0.00 | 85 | 1010.5 |
| 20260506091240 | 12 | 337 | 8.0 | 9.7 | 0.00 | 0.00 | 0.00 | 85 | 1010.7 |
| 20260506090738 | 12 | 3 | 3.2 | 3.2 | 0.00 | 0.00 | 0.00 | 85 | 1010.4 |
| 20260506090235 | 12 | 328 | 9.7 | 11.3 | 0.00 | 0.00 | 0.00 | 85 | 1010.5 |
| 20260506085731 | 12 | 349 | 8.0 | 9.7 | 0.00 | 0.00 | 0.00 | 85 | 1010.5 |
| 20260506085228 | 12 | 342 | 6.4 | 8.0 | 0.00 | 0.00 | 0.00 | 85 | 1010.4 |
| 20260506084724 | 12 | 3 | 8.0 | 9.7 | 0.00 | 0.00 | 0.00 | 85 | 1010.5 |
| 20260506084220 | 12 | 6 | 6.4 | 8.0 | 0.00 | 0.00 | 0.00 | 85 | 1010.4 |
| 20260506083718 | 12 | 21 | 6.4 | 11.3 | 0.00 | 0.00 | 0.00 | 84 | 1010.4 |
| 20260506083216 | 12 | 355 | 6.4 | 9.7 | 0.00 | 0.00 | 0.00 | 84 | 1010.4 |
| 20260506082713 | 12 | 33 | 9.7 | 11.3 | 0.00 | 0.00 | 0.00 | 84 | 1010.5 |
| 20260506082208 | 12 | 355 | 8.0 | 9.7 | 0.00 | 0.00 | 0.00 | 85 | 1010.1 |
| 20260506081706 | 12 | 26 | 6.4 | 8.0 | 0.00 | 0.00 | 0.00 | 85 | 1010.1 |
| 20260506081158 | 12 | 7 | 8.0 | 11.3 | 0.00 | 0.00 | 0.00 | 85 | 1010.0 |
| 20260506080656 | 12 | 3 | 12.9 | 16.1 | 0.00 | 0.00 | 0.00 | 85 | 1010.1 |
| 20260506080152 | 12 | 41 | 6.4 | 9.7 | 0.00 | 0.00 | 0.00 | 85 | 1010.0 |
| 20260506073136 | 13 | 9 | 4.8 | 8.0 | 0.00 | 0.00 | 0.00 | 87 | 1010.2 |
| 20260506072633 | 13 | 355 | 6.4 | 8.0 | 0.00 | 0.00 | 0.00 | 86 | 1010.5 |
| 20260506072131 | 13 | 337 | 4.8 | 8.0 | 0.00 | 0.00 | 0.00 | 87 | 1010.5 |
| 20260506071628 | 13 | 330 | 6.4 | 8.0 | 0.00 | 0.00 | 0.00 | 87 | 1010.4 |
| 20260506071126 | 13 | 19 | 4.8 | 8.0 | 0.00 | 0.00 | 0.00 | 87 | 1010.0 |
| 20260506070622 | 13 | 355 | 6.4 | 8.0 | 0.00 | 0.00 | 0.00 | 87 | 1010.2 |
| 20260506070119 | 13 | 11 | 6.4 | 8.0 | 0.00 | 0.00 | 0.00 | 88 | 1010.1 |
| 20260506062057 | 13 | 58 | 4.8 | 8.0 | 0.00 | 0.00 | 0.00 | 86 | 1009.4 |
| 20260506061552 | 13 | 74 | 6.4 | 11.3 | 0.00 | 0.00 | 0.00 | 86 | 1009.4 |
| 20260506061050 | 13 | 20 | 6.4 | 8.0 | 0.00 | 0.00 | 0.00 | 86 | 1009.2 |
| 20260506060549 | 13 | 40 | 6.4 | 8.0 | 0.00 | 0.00 | 0.00 | 86 | 1009.9 |
| 20260506051017 | 14 | 29 | 11.3 | 12.9 | 0.00 | 0.00 | 0.00 | 84 | 1009.7 |
| 20260506050515 | 14 | 21 | 8.0 | 9.7 | 0.00 | 0.00 | 0.00 | 84 | 1010.1 |
| 20260506045005 | 14 | 27 | 11.3 | 12.9 | 0.00 | 0.00 | 0.00 | 83 | 1009.9 |
| 20260506044503 | 14 | 25 | 4.8 | 8.0 | 0.00 | 0.00 | 0.00 | 83 | 1009.9 |
| 20260506043959 | 14 | 333 | 14.5 | 16.1 | 0.00 | 0.00 | 0.00 | 83 | 1010.0 |
| 20260506043456 | 15 | 315 | 12.9 | 16.1 | 0.00 | 0.00 | 0.00 | 83 | 1009.8 |
| 20260506042954 | 15 | 0 | 11.3 | 12.9 | 0.00 | 0.00 | 0.00 | 83 | 1010.0 |
| 20260506042449 | 15 | 29 | 8.0 | 8.0 | 0.00 | 0.00 | 0.00 | 83 | 1009.8 |
| 20260506041946 | 15 | 357 | 4.8 | 4.8 | 0.00 | 0.00 | 0.00 | 83 | 1009.7 |
| 20260506041444 | 15 | 348 | 8.0 | 9.7 | 0.00 | 0.00 | 0.00 | 83 | 1009.4 |
| 20260506040941 | 15 | 351 | 8.0 | 11.3 | 0.00 | 0.00 | 0.00 | 83 | 1009.8 |
| 20260506040438 | 15 | 352 | 11.3 | 14.5 | 0.00 | 0.00 | 0.00 | 83 | 1009.9 |
| 20260506035934 | 15 | 357 | 6.4 | 8.0 | 0.00 | 0.00 | 0.00 | 82 | 1009.9 |
| 20260506035432 | 15 | 328 | 11.3 | 14.5 | 0.00 | 0.00 | 0.00 | 82 | 1009.7 |
| 20260506034928 | 15 | 349 | 11.3 | 14.5 | 0.00 | 0.00 | 0.00 | 81 | 1009.9 |
| 20260506034426 | 15 | 341 | 9.7 | 11.3 | 0.00 | 0.00 | 0.00 | 81 | 1009.9 |
| 20260506033923 | 15 | 359 | 9.7 | 11.3 | 0.00 | 0.00 | 0.00 | 80 | 1009.9 |
| 20260506033420 | 15 | 344 | 8.0 | 12.9 | 0.00 | 0.00 | 0.00 | 80 | 1009.7 |
| 20260506032917 | 16 | 4 | 8.0 | 11.3 | 0.00 | 0.00 | 0.00 | 80 | 1009.8 |
| 20260506032414 | 16 | 346 | 9.7 | 12.9 | 0.00 | 0.00 | 0.00 | 80 | 1009.3 |
| 20260506031910 | 16 | 15 | 9.7 | 12.9 | 0.00 | 0.00 | 0.00 | 80 | 1009.5 |
| 20260506031408 | 16 | 37 | 11.3 | 12.9 | 0.00 | 0.00 | 0.00 | 80 | 1009.0 |
| 20260506030905 | 16 | 22 | 9.7 | 12.9 | 0.00 | 0.00 | 0.00 | 80 | 1008.9 |
| 20260506030403 | 16 | 16 | 8.0 | 11.3 | 0.00 | 0.00 | 0.00 | 80 | 1008.5 |
| 20260506025900 | 16 | 3 | 11.3 | 12.9 | 0.00 | 0.00 | 0.00 | 79 | 1008.7 |
| 20260506025356 | 16 | 11 | 11.3 | 14.5 | 0.00 | 0.00 | 0.00 | 79 | 1008.7 |
| 20260506024854 | 16 | 37 | 9.7 | 12.9 | 0.00 | 0.00 | 0.00 | 79 | 1008.7 |
| 20260506024351 | 16 | 339 | 9.7 | 11.3 | 0.00 | 0.00 | 0.00 | 79 | 1008.6 |
| 20260506023846 | 17 | 8 | 9.7 | 11.3 | 0.00 | 0.00 | 0.00 | 79 | 1008.6 |
| 20260506023344 | 17 | 13 | 14.5 | 16.1 | 0.00 | 0.00 | 0.00 | 79 | 1008.4 |
| 20260506022840 | 17 | 12 | 8.0 | 12.9 | 0.00 | 0.00 | 0.00 | 80 | 1008.2 |
| 20260506022338 | 17 | 9 | 8.0 | 12.9 | 0.00 | 0.00 | 0.00 | 80 | 1007.5 |
| 20260506021836 | 17 | 338 | 12.9 | 16.1 | 0.00 | 0.00 | 0.00 | 79 | 1007.9 |
| 20260506021332 | 17 | 6 | 9.7 | 12.9 | 0.00 | 0.00 | 0.00 | 79 | 1007.8 |
| 20260506020829 | 17 | 12 | 9.7 | 11.3 | 0.00 | 0.00 | 0.00 | 78 | 1007.7 |
| 20260506020327 | 17 | 346 | 11.3 | 14.5 | 0.00 | 0.00 | 0.00 | 78 | 1007.7 |
| 20260506015824 | 17 | 39 | 8.0 | 9.7 | 0.00 | 0.00 | 0.00 | 78 | 1007.3 |
| 20260506015322 | 17 | 38 | 8.0 | 9.7 | 0.00 | 0.00 | 0.00 | 78 | 1007.5 |
| 20260506014818 | 17 | 353 | 8.0 | 9.7 | 0.00 | 0.00 | 0.00 | 77 | 1007.5 |
| 20260506014315 | 18 | 357 | 4.8 | 9.7 | 0.00 | 0.00 | 0.00 | 77 | 1007.6 |
| 20260506013812 | 18 | 332 | 8.0 | 12.9 | 0.00 | 0.00 | 0.00 | 77 | 1007.5 |
| 20260506013309 | 18 | 5 | 6.4 | 8.0 | 0.00 | 0.00 | 0.00 | 76 | 1007.0 |
| 20260506012806 | 18 | 23 | 6.4 | 8.0 | 0.00 | 0.00 | 0.00 | 75 | 1007.0 |
| 20260506012307 | 18 | 3 | 11.3 | 14.5 | 0.00 | 0.00 | 0.00 | 75 | 1006.7 |
| 20260506011800 | 18 | 358 | 6.4 | 8.0 | 0.00 | 0.00 | 0.00 | 75 | 1006.8 |
| 20260506011256 | 18 | 331 | 8.0 | 9.7 | 0.00 | 0.00 | 0.00 | 75 | 1006.8 |
| 20260506010754 | 18 | 3 | 12.9 | 17.7 | 0.00 | 0.00 | 0.00 | 75 | 1006.6 |
| 20260506010252 | 19 | 359 | 14.5 | 17.7 | 0.00 | 0.00 | 0.00 | 75 | 1006.2 |
| 20260506005749 | 19 | 33 | 11.3 | 17.7 | 0.00 | 0.00 | 0.00 | 75 | 1006.2 |
| 20260506005245 | 19 | 32 | 9.7 | 11.3 | 0.00 | 0.00 | 0.00 | 75 | 1005.8 |
| 20260506004741 | 20 | 358 | 8.0 | 12.9 | 0.00 | 0.00 | 0.00 | 74 | 1006.0 |
| 20260506004239 | 20 | 42 | 9.7 | 12.9 | 0.00 | 0.00 | 0.00 | 74 | 1005.8 |
| 20260506003735 | 20 | 355 | 9.7 | 11.3 | 0.00 | 0.00 | 0.00 | 72 | 1005.5 |
| 20260506003231 | 20 | 350 | 14.5 | 16.1 | 0.00 | 0.00 | 0.00 | 72 | 1005.7 |
| 20260506002727 | 20 | 349 | 11.3 | 14.5 | 0.00 | 0.00 | 0.00 | 72 | 1006.0 |
| 20260506002224 | 20 | 11 | 12.9 | 14.5 | 0.00 | 0.00 | 0.00 | 71 | 1005.9 |
| 20260506001720 | 21 | 16 | 8.0 | 8.0 | 0.00 | 0.00 | 0.00 | 71 | 1005.7 |
| 20260506001217 | 21 | 24 | 9.7 | 11.3 | 0.00 | 0.00 | 0.00 | 70 | 1005.5 |
| 20260506000714 | 21 | 356 | 8.0 | 11.3 | 0.00 | 0.00 | 0.00 | 70 | 1005.8 |
| 20260506000212 | 21 | 12 | 8.0 | 11.3 | 0.00 | 0.00 | 0.00 | 70 | 1005.8 |
| 20260505235709 | 21 | 346 | 14.5 | 16.1 | 0.00 | 0.00 | 0.00 | 69 | 1005.9 |
| 20260505235207 | 21 | 18 | 9.7 | 11.3 | 0.00 | 0.00 | 0.00 | 68 | 1005.8 |
| 20260505234703 | 21 | 356 | 11.3 | 14.5 | 0.00 | 0.00 | 0.00 | 67 | 1005.8 |
| 20260505234200 | 21 | 6 | 9.7 | 12.9 | 0.00 | 0.00 | 0.00 | 68 | 1005.5 |
| 20260505233656 | 22 | 1 | 8.0 | 9.7 | 0.00 | 0.00 | 0.00 | 69 | 1005.7 |
| 20260505233155 | 22 | 5 | 11.3 | 12.9 | 0.00 | 0.00 | 0.00 | 68 | 1005.4 |
| 20260505232652 | 22 | 0 | 11.3 | 14.5 | 0.00 | 0.00 | 0.00 | 68 | 1005.6 |
| 20260505232149 | 22 | 13 | 12.9 | 16.1 | 0.00 | 0.00 | 0.00 | 68 | 1005.4 |
| 20260505231645 | 22 | 351 | 12.9 | 16.1 | 0.00 | 0.00 | 0.00 | 67 | 1005.5 |
| 20260505231144 | 23 | 9 | 17.7 | 20.9 | 0.00 | 0.00 | 0.00 | 66 | 1005.4 |
| 20260505230637 | 23 | 342 | 12.9 | 14.5 | 0.00 | 0.00 | 0.00 | 67 | 1005.3 |